sensor_id;sensor_type;location;lat;lon;timestamp;pressure;altitude;pressure_sealevel;temperature;humidity
34925;BME280;21130;51.728;8.748;2023-07-29T00:01:23;99639.91;;;16.49;100.00
34925;BME280;21130;51.728;8.748;2023-07-29T00:03:50;99646.78;;;16.56;100.00
34925;BME280;21130;51.728;8.748;2023-07-29T00:06:17;99636.91;;;16.59;100.00
34925;BME280;21130;51.728;8.748;2023-07-29T00:08:45;99639.63;;;16.64;100.00
34925;BME280;21130;51.728;8.748;2023-07-29T00:11:11;99641.13;;;16.75;100.00
34925;BME280;21130;51.728;8.748;2023-07-29T00:13:37;99638.69;;;16.88;100.00
34925;BME280;21130;51.728;8.748;2023-07-29T00:16:04;99634.31;;;16.95;100.00
34925;BME280;21130;51.728;8.748;2023-07-29T00:18:31;99641.00;;;16.99;100.00
34925;BME280;21130;51.728;8.748;2023-07-29T00:20:58;99631.84;;;17.08;100.00
34925;BME280;21130;51.728;8.748;2023-07-29T00:23:24;99628.56;;;17.19;100.00
34925;BME280;21130;51.728;8.748;2023-07-29T00:25:52;99626.81;;;17.23;100.00
34925;BME280;21130;51.728;8.748;2023-07-29T00:28:19;99621.63;;;17.31;100.00
34925;BME280;21130;51.728;8.748;2023-07-29T00:30:45;99619.19;;;17.38;100.00
34925;BME280;21130;51.728;8.748;2023-07-29T00:33:12;99625.03;;;17.41;100.00
34925;BME280;21130;51.728;8.748;2023-07-29T00:35:38;99619.31;;;17.46;100.00
34925;BME280;21130;51.728;8.748;2023-07-29T00:38:05;99610.06;;;17.46;100.00
34925;BME280;21130;51.728;8.748;2023-07-29T00:40:35;99620.03;;;17.52;100.00
34925;BME280;21130;51.728;8.748;2023-07-29T00:43:03;99618.06;;;17.53;100.00
34925;BME280;21130;51.728;8.748;2023-07-29T00:45:30;99606.19;;;17.69;100.00
34925;BME280;21130;51.728;8.748;2023-07-29T00:47:58;99599.84;;;17.78;100.00
34925;BME280;21130;51.728;8.748;2023-07-29T00:50:25;99607.22;;;17.87;100.00
34925;BME280;21130;51.728;8.748;2023-07-29T00:52:53;99609.22;;;17.87;100.00
34925;BME280;21130;51.728;8.748;2023-07-29T00:55:20;99599.63;;;17.88;100.00
34925;BME280;21130;51.728;8.748;2023-07-29T00:57:47;99598.50;;;17.89;100.00
34925;BME280;21130;51.728;8.748;2023-07-29T01:00:18;99597.16;;;17.86;100.00
34925;BME280;21130;51.728;8.748;2023-07-29T01:02:44;99601.31;;;17.89;100.00
34925;BME280;21130;51.728;8.748;2023-07-29T01:05:12;99605.47;;;17.91;100.00
34925;BME280;21130;51.728;8.748;2023-07-29T01:07:45;99602.44;;;17.88;100.00
34925;BME280;21130;51.728;8.748;2023-07-29T01:10:21;99604.41;;;17.87;100.00
34925;BME280;21130;51.728;8.748;2023-07-29T01:12:54;99611.81;;;17.83;100.00
34925;BME280;21130;51.728;8.748;2023-07-29T01:15:32;99608.59;;;17.76;100.00
34925;BME280;21130;51.728;8.748;2023-07-29T01:18:05;99612.53;;;17.75;100.00
34925;BME280;21130;51.728;8.748;2023-07-29T01:20:33;99604.72;;;17.72;100.00
34925;BME280;21130;51.728;8.748;2023-07-29T01:23:00;99598.31;;;17.71;100.00
34925;BME280;21130;51.728;8.748;2023-07-29T01:25:28;99602.22;;;17.70;100.00
34925;BME280;21130;51.728;8.748;2023-07-29T01:27:55;99603.59;;;17.73;100.00
34925;BME280;21130;51.728;8.748;2023-07-29T01:30:26;99600.47;;;17.75;100.00
34925;BME280;21130;51.728;8.748;2023-07-29T01:32:59;99594.22;;;17.78;100.00
34925;BME280;21130;51.728;8.748;2023-07-29T01:35:33;99604.53;;;17.82;100.00
34925;BME280;21130;51.728;8.748;2023-07-29T01:38:06;99588.84;;;17.81;100.00
34925;BME280;21130;51.728;8.748;2023-07-29T01:40:34;99588.13;;;17.76;100.00
34925;BME280;21130;51.728;8.748;2023-07-29T01:43:01;99599.75;;;17.69;100.00
34925;BME280;21130;51.728;8.748;2023-07-29T01:45:28;99597.78;;;17.69;100.00
34925;BME280;21130;51.728;8.748;2023-07-29T01:47:57;99590.28;;;17.65;100.00
34925;BME280;21130;51.728;8.748;2023-07-29T01:50:23;99583.03;;;17.64;100.00
34925;BME280;21130;51.728;8.748;2023-07-29T01:52:50;99581.06;;;17.64;100.00
34925;BME280;21130;51.728;8.748;2023-07-29T01:55:16;99581.25;;;17.68;100.00
34925;BME280;21130;51.728;8.748;2023-07-29T01:57:44;99577.41;;;17.64;100.00
34925;BME280;21130;51.728;8.748;2023-07-29T02:00:11;99573.47;;;17.65;100.00
34925;BME280;21130;51.728;8.748;2023-07-29T02:02:38;99578.88;;;17.61;100.00
34925;BME280;21130;51.728;8.748;2023-07-29T02:05:05;99575.97;;;17.66;100.00
34925;BME280;21130;51.728;8.748;2023-07-29T02:07:31;99576.91;;;17.62;100.00
34925;BME280;21130;51.728;8.748;2023-07-29T02:09:58;99579.00;;;17.56;100.00
34925;BME280;21130;51.728;8.748;2023-07-29T02:12:25;99577.97;;;17.52;100.00
34925;BME280;21130;51.728;8.748;2023-07-29T02:14:53;99582.56;;;17.48;100.00
34925;BME280;21130;51.728;8.748;2023-07-29T02:17:19;99582.84;;;17.46;100.00
34925;BME280;21130;51.728;8.748;2023-07-29T02:19:46;99587.81;;;17.49;100.00
34925;BME280;21130;51.728;8.748;2023-07-29T02:22:13;99580.56;;;17.48;100.00
34925;BME280;21130;51.728;8.748;2023-07-29T02:24:40;99586.59;;;17.56;100.00
34925;BME280;21130;51.728;8.748;2023-07-29T02:27:07;99577.66;;;17.54;100.00
34925;BME280;21130;51.728;8.748;2023-07-29T02:29:34;99569.88;;;17.51;100.00
34925;BME280;21130;51.728;8.748;2023-07-29T02:32:03;99580.75;;;17.52;100.00
34925;BME280;21130;51.728;8.748;2023-07-29T02:34:30;99580.47;;;17.54;100.00
34925;BME280;21130;51.728;8.748;2023-07-29T02:36:56;99579.94;;;17.52;100.00
34925;BME280;21130;51.728;8.748;2023-07-29T02:39:23;99568.53;;;17.48;100.00
34925;BME280;21130;51.728;8.748;2023-07-29T02:41:50;99571.34;;;17.48;100.00
34925;BME280;21130;51.728;8.748;2023-07-29T02:44:16;99569.94;;;17.45;100.00
34925;BME280;21130;51.728;8.748;2023-07-29T02:46:43;99573.91;;;17.44;100.00
34925;BME280;21130;51.728;8.748;2023-07-29T02:49:10;99566.13;;;17.41;100.00
34925;BME280;21130;51.728;8.748;2023-07-29T02:51:37;99558.03;;;17.40;100.00
34925;BME280;21130;51.728;8.748;2023-07-29T02:54:03;99551.88;;;17.38;100.00
34925;BME280;21130;51.728;8.748;2023-07-29T02:56:30;99556.03;;;17.54;100.00
34925;BME280;21130;51.728;8.748;2023-07-29T02:58:56;99560.72;;;17.45;100.00
34925;BME280;21130;51.728;8.748;2023-07-29T03:01:25;99556.66;;;17.37;100.00
34925;BME280;21130;51.728;8.748;2023-07-29T03:03:51;99560.63;;;17.36;100.00
34925;BME280;21130;51.728;8.748;2023-07-29T03:06:19;99558.94;;;17.35;100.00
34925;BME280;21130;51.728;8.748;2023-07-29T03:08:46;99550.06;;;17.33;100.00
34925;BME280;21130;51.728;8.748;2023-07-29T03:11:14;99548.38;;;17.32;100.00
34925;BME280;21130;51.728;8.748;2023-07-29T03:13:41;99545.03;;;17.30;100.00
34925;BME280;21130;51.728;8.748;2023-07-29T03:16:09;99543.91;;;17.31;100.00
34925;BME280;21130;51.728;8.748;2023-07-29T03:18:36;99531.34;;;17.28;100.00
34925;BME280;21130;51.728;8.748;2023-07-29T03:21:03;99537.78;;;17.29;100.00
34925;BME280;21130;51.728;8.748;2023-07-29T03:23:32;99530.53;;;17.28;100.00
34925;BME280;21130;51.728;8.748;2023-07-29T03:25:59;99537.25;;;17.27;100.00
34925;BME280;21130;51.728;8.748;2023-07-29T03:28:28;99537.91;;;17.24;100.00
34925;BME280;21130;51.728;8.748;2023-07-29T03:30:55;99541.00;;;17.22;100.00
34925;BME280;21130;51.728;8.748;2023-07-29T03:33:22;99539.88;;;17.23;100.00
34925;BME280;21130;51.728;8.748;2023-07-29T03:35:49;99536.25;;;17.23;100.00
34925;BME280;21130;51.728;8.748;2023-07-29T03:38:15;99538.19;;;17.22;100.00
34925;BME280;21130;51.728;8.748;2023-07-29T03:40:43;99533.75;;;17.21;100.00
34925;BME280;21130;51.728;8.748;2023-07-29T03:43:10;99536.56;;;17.21;100.00
34925;BME280;21130;51.728;8.748;2023-07-29T03:45:37;99532.47;;;17.27;100.00
34925;BME280;21130;51.728;8.748;2023-07-29T03:48:04;99529.47;;;17.24;100.00
34925;BME280;21130;51.728;8.748;2023-07-29T03:50:33;99530.94;;;17.21;100.00
34925;BME280;21130;51.728;8.748;2023-07-29T03:53:00;99525.84;;;17.23;100.00
34925;BME280;21130;51.728;8.748;2023-07-29T03:55:26;99519.63;;;17.26;100.00
34925;BME280;21130;51.728;8.748;2023-07-29T03:57:56;99519.91;;;17.25;100.00
34925;BME280;21130;51.728;8.748;2023-07-29T04:00:22;99512.66;;;17.24;100.00
34925;BME280;21130;51.728;8.748;2023-07-29T04:02:49;99507.69;;;17.21;100.00
34925;BME280;21130;51.728;8.748;2023-07-29T04:05:16;99521.19;;;17.19;100.00
34925;BME280;21130;51.728;8.748;2023-07-29T04:07:42;99518.16;;;17.15;100.00
34925;BME280;21130;51.728;8.748;2023-07-29T04:10:09;99529.72;;;17.14;100.00
34925;BME280;21130;51.728;8.748;2023-07-29T04:12:36;99529.06;;;17.17;100.00
34925;BME280;21130;51.728;8.748;2023-07-29T04:15:05;99540.19;;;17.22;100.00
34925;BME280;21130;51.728;8.748;2023-07-29T04:17:31;99537.19;;;17.18;100.00
34925;BME280;21130;51.728;8.748;2023-07-29T04:19:58;99536.31;;;17.18;100.00
34925;BME280;21130;51.728;8.748;2023-07-29T04:22:24;99540.28;;;17.17;100.00
34925;BME280;21130;51.728;8.748;2023-07-29T04:24:51;99530.81;;;17.13;100.00
34925;BME280;21130;51.728;8.748;2023-07-29T04:27:17;99533.03;;;17.16;100.00
34925;BME280;21130;51.728;8.748;2023-07-29T04:29:43;99529.06;;;17.17;100.00
34925;BME280;21130;51.728;8.748;2023-07-29T04:32:11;99525.97;;;17.18;100.00
34925;BME280;21130;51.728;8.748;2023-07-29T04:34:38;99526.91;;;17.14;100.00
34925;BME280;21130;51.728;8.748;2023-07-29T04:37:05;99529.91;;;17.17;100.00
34925;BME280;21130;51.728;8.748;2023-07-29T04:39:31;99512.88;;;17.14;100.00
34925;BME280;21130;51.728;8.748;2023-07-29T04:41:58;99518.28;;;17.10;100.00
34925;BME280;21130;51.728;8.748;2023-07-29T04:44:26;99517.84;;;17.17;100.00
34925;BME280;21130;51.728;8.748;2023-07-29T04:46:52;99517.03;;;17.16;100.00
34925;BME280;21130;51.728;8.748;2023-07-29T04:49:20;99513.91;;;17.18;100.00
34925;BME280;21130;51.728;8.748;2023-07-29T04:51:46;99508.91;;;17.15;100.00
34925;BME280;21130;51.728;8.748;2023-07-29T04:54:13;99523.16;;;17.18;100.00
34925;BME280;21130;51.728;8.748;2023-07-29T04:56:39;99517.75;;;17.22;100.00
34925;BME280;21130;51.728;8.748;2023-07-29T04:59:06;99515.47;;;17.24;100.00
34925;BME280;21130;51.728;8.748;2023-07-29T05:01:33;99508.81;;;17.20;100.00
34925;BME280;21130;51.728;8.748;2023-07-29T05:04:00;99508.00;;;17.19;100.00
34925;BME280;21130;51.728;8.748;2023-07-29T05:06:28;99503.44;;;17.23;100.00
34925;BME280;21130;51.728;8.748;2023-07-29T05:08:56;99504.03;;;17.20;100.00
34925;BME280;21130;51.728;8.748;2023-07-29T05:11:23;99502.91;;;17.21;100.00
34925;BME280;21130;51.728;8.748;2023-07-29T05:13:50;99510.16;;;17.22;100.00
34925;BME280;21130;51.728;8.748;2023-07-29T05:16:17;99517.63;;;17.27;100.00
34925;BME280;21130;51.728;8.748;2023-07-29T05:18:43;99510.56;;;17.30;100.00
34925;BME280;21130;51.728;8.748;2023-07-29T05:21:09;99520.31;;;17.32;100.00
34925;BME280;21130;51.728;8.748;2023-07-29T05:23:40;99523.00;;;17.37;100.00
34925;BME280;21130;51.728;8.748;2023-07-29T05:26:07;99517.94;;;17.39;100.00
34925;BME280;21130;51.728;8.748;2023-07-29T05:28:33;99516.47;;;17.42;100.00
34925;BME280;21130;51.728;8.748;2023-07-29T05:31:00;99513.84;;;17.45;100.00
34925;BME280;21130;51.728;8.748;2023-07-29T05:33:27;99510.00;;;17.55;100.00
34925;BME280;21130;51.728;8.748;2023-07-29T05:35:54;99503.19;;;17.70;100.00
34925;BME280;21130;51.728;8.748;2023-07-29T05:38:21;99501.22;;;17.70;100.00
34925;BME280;21130;51.728;8.748;2023-07-29T05:40:49;99501.50;;;17.83;100.00
34925;BME280;21130;51.728;8.748;2023-07-29T05:43:16;99510.00;;;17.91;100.00
34925;BME280;21130;51.728;8.748;2023-07-29T05:45:42;99510.53;;;17.94;100.00
34925;BME280;21130;51.728;8.748;2023-07-29T05:48:09;99508.72;;;17.98;100.00
34925;BME280;21130;51.728;8.748;2023-07-29T05:50:35;99498.53;;;18.02;100.00
34925;BME280;21130;51.728;8.748;2023-07-29T05:53:02;99504.78;;;17.99;100.00
34925;BME280;21130;51.728;8.748;2023-07-29T05:55:28;99511.78;;;18.10;100.00
34925;BME280;21130;51.728;8.748;2023-07-29T05:57:56;99511.28;;;18.08;100.00
34925;BME280;21130;51.728;8.748;2023-07-29T06:00:23;99510.97;;;18.09;100.00
34925;BME280;21130;51.728;8.748;2023-07-29T06:02:49;99512.50;;;18.16;100.00
34925;BME280;21130;51.728;8.748;2023-07-29T06:05:16;99518.97;;;18.16;100.00
34925;BME280;21130;51.728;8.748;2023-07-29T06:07:42;99517.00;;;18.25;100.00
34925;BME280;21130;51.728;8.748;2023-07-29T06:10:10;99526.28;;;18.26;100.00
34925;BME280;21130;51.728;8.748;2023-07-29T06:12:37;99529.41;;;18.24;100.00
34925;BME280;21130;51.728;8.748;2023-07-29T06:15:06;99526.09;;;18.22;100.00
34925;BME280;21130;51.728;8.748;2023-07-29T06:17:33;99528.38;;;18.20;100.00
34925;BME280;21130;51.728;8.748;2023-07-29T06:19:59;99526.72;;;18.19;100.00
34925;BME280;21130;51.728;8.748;2023-07-29T06:22:25;99527.88;;;18.18;100.00
34925;BME280;21130;51.728;8.748;2023-07-29T06:24:52;99530.38;;;18.20;100.00
34925;BME280;21130;51.728;8.748;2023-07-29T06:27:18;99533.69;;;18.22;100.00
34925;BME280;21130;51.728;8.748;2023-07-29T06:29:45;99524.31;;;18.26;100.00
34925;BME280;21130;51.728;8.748;2023-07-29T06:32:13;99513.81;;;18.18;100.00
34925;BME280;21130;51.728;8.748;2023-07-29T06:34:39;99518.56;;;18.31;100.00
34925;BME280;21130;51.728;8.748;2023-07-29T06:37:06;99526.59;;;18.47;100.00
34925;BME280;21130;51.728;8.748;2023-07-29T06:39:32;99535.25;;;18.59;100.00
34925;BME280;21130;51.728;8.748;2023-07-29T06:41:59;99540.59;;;18.69;100.00
34925;BME280;21130;51.728;8.748;2023-07-29T06:44:25;99528.59;;;18.77;100.00
34925;BME280;21130;51.728;8.748;2023-07-29T06:46:52;99528.59;;;18.77;100.00
34925;BME280;21130;51.728;8.748;2023-07-29T06:49:21;99524.63;;;18.78;100.00
34925;BME280;21130;51.728;8.748;2023-07-29T06:51:47;99524.81;;;18.82;100.00
34925;BME280;21130;51.728;8.748;2023-07-29T06:54:16;99524.69;;;18.96;100.00
34925;BME280;21130;51.728;8.748;2023-07-29T06:56:42;99525.84;;;18.95;100.00
34925;BME280;21130;51.728;8.748;2023-07-29T06:59:09;99519.41;;;18.94;100.00
34925;BME280;21130;51.728;8.748;2023-07-29T07:01:35;99520.06;;;18.91;100.00
34925;BME280;21130;51.728;8.748;2023-07-29T07:04:02;99524.19;;;18.94;100.00
34925;BME280;21130;51.728;8.748;2023-07-29T07:06:30;99534.78;;;18.97;100.00
34925;BME280;21130;51.728;8.748;2023-07-29T07:08:56;99534.59;;;18.93;100.00
34925;BME280;21130;51.728;8.748;2023-07-29T07:11:23;99541.56;;;18.96;100.00
34925;BME280;21130;51.728;8.748;2023-07-29T07:13:49;99547.88;;;19.02;100.00
34925;BME280;21130;51.728;8.748;2023-07-29T07:16:16;99553.66;;;19.05;100.00
34925;BME280;21130;51.728;8.748;2023-07-29T07:18:43;99553.81;;;19.00;100.00
34925;BME280;21130;51.728;8.748;2023-07-29T07:21:10;99557.16;;;19.02;100.00
34925;BME280;21130;51.728;8.748;2023-07-29T07:23:40;99557.47;;;19.00;100.00
34925;BME280;21130;51.728;8.748;2023-07-29T07:26:07;99554.78;;;18.95;100.00
34925;BME280;21130;51.728;8.748;2023-07-29T07:28:34;99573.13;;;18.93;100.00
34925;BME280;21130;51.728;8.748;2023-07-29T07:31:00;99560.00;;;18.80;100.00
34925;BME280;21130;51.728;8.748;2023-07-29T07:33:27;99567.78;;;18.83;100.00
34925;BME280;21130;51.728;8.748;2023-07-29T07:35:53;99560.03;;;18.88;100.00
34925;BME280;21130;51.728;8.748;2023-07-29T07:38:20;99569.34;;;18.97;100.00
34925;BME280;21130;51.728;8.748;2023-07-29T07:40:53;99567.94;;;19.17;100.00
34925;BME280;21130;51.728;8.748;2023-07-29T07:43:21;99565.19;;;19.26;100.00
34925;BME280;21130;51.728;8.748;2023-07-29T07:45:47;99575.28;;;19.36;100.00
34925;BME280;21130;51.728;8.748;2023-07-29T07:48:14;99575.16;;;19.50;100.00
34925;BME280;21130;51.728;8.748;2023-07-29T07:50:42;99574.53;;;19.61;100.00
34925;BME280;21130;51.728;8.748;2023-07-29T07:53:08;99575.84;;;19.55;100.00
34925;BME280;21130;51.728;8.748;2023-07-29T07:55:35;99570.53;;;19.45;100.00
34925;BME280;21130;51.728;8.748;2023-07-29T07:58:02;99574.66;;;19.39;100.00
34925;BME280;21130;51.728;8.748;2023-07-29T08:00:29;99562.22;;;19.40;100.00
34925;BME280;21130;51.728;8.748;2023-07-29T08:02:56;99568.97;;;19.21;100.00
34925;BME280;21130;51.728;8.748;2023-07-29T08:05:23;99568.31;;;19.25;100.00
34925;BME280;21130;51.728;8.748;2023-07-29T08:07:49;99568.78;;;19.18;100.00
34925;BME280;21130;51.728;8.748;2023-07-29T08:10:16;99554.69;;;19.09;100.00
34925;BME280;21130;51.728;8.748;2023-07-29T08:12:42;99564.03;;;18.96;100.00
34925;BME280;21130;51.728;8.748;2023-07-29T08:15:10;99570.00;;;18.94;100.00
34925;BME280;21130;51.728;8.748;2023-07-29T08:17:38;99567.66;;;18.88;100.00
34925;BME280;21130;51.728;8.748;2023-07-29T08:20:06;99558.53;;;18.82;100.00
34925;BME280;21130;51.728;8.748;2023-07-29T08:22:33;99559.50;;;18.77;100.00
34925;BME280;21130;51.728;8.748;2023-07-29T08:24:59;99565.63;;;18.80;100.00
34925;BME280;21130;51.728;8.748;2023-07-29T08:27:25;99569.50;;;18.92;100.00
34925;BME280;21130;51.728;8.748;2023-07-29T08:29:53;99571.50;;;19.00;100.00
34925;BME280;21130;51.728;8.748;2023-07-29T08:32:21;99560.47;;;19.04;100.00
34925;BME280;21130;51.728;8.748;2023-07-29T08:34:47;99571.94;;;19.16;100.00
34925;BME280;21130;51.728;8.748;2023-07-29T08:37:15;99581.22;;;19.26;100.00
34925;BME280;21130;51.728;8.748;2023-07-29T08:39:42;99577.94;;;19.32;100.00
34925;BME280;21130;51.728;8.748;2023-07-29T08:42:11;99565.88;;;19.40;100.00
34925;BME280;21130;51.728;8.748;2023-07-29T08:44:40;99569.50;;;19.41;100.00
34925;BME280;21130;51.728;8.748;2023-07-29T08:47:14;99574.66;;;19.48;100.00
34925;BME280;21130;51.728;8.748;2023-07-29T08:49:44;99564.94;;;19.54;100.00
34925;BME280;21130;51.728;8.748;2023-07-29T08:52:11;99569.44;;;19.72;100.00
34925;BME280;21130;51.728;8.748;2023-07-29T08:54:38;99566.81;;;20.28;100.00
34925;BME280;21130;51.728;8.748;2023-07-29T08:57:06;99570.44;;;20.46;100.00
34925;BME280;21130;51.728;8.748;2023-07-29T08:59:32;99558.66;;;20.53;100.00
34925;BME280;21130;51.728;8.748;2023-07-29T09:01:59;99560.38;;;20.10;100.00
34925;BME280;21130;51.728;8.748;2023-07-29T09:04:26;99567.47;;;20.07;100.00
34925;BME280;21130;51.728;8.748;2023-07-29T09:06:56;99565.16;;;20.01;100.00
34925;BME280;21130;51.728;8.748;2023-07-29T09:09:22;99563.00;;;20.15;100.00
34925;BME280;21130;51.728;8.748;2023-07-29T09:11:49;99560.50;;;20.40;100.00
34925;BME280;21130;51.728;8.748;2023-07-29T09:14:15;99572.09;;;20.38;100.00
34925;BME280;21130;51.728;8.748;2023-07-29T09:16:43;99584.13;;;20.91;100.00
34925;BME280;21130;51.728;8.748;2023-07-29T09:19:10;99568.72;;;21.27;100.00
34925;BME280;21130;51.728;8.748;2023-07-29T09:21:38;99565.69;;;21.91;100.00
34925;BME280;21130;51.728;8.748;2023-07-29T09:24:07;99571.31;;;22.54;100.00
34925;BME280;21130;51.728;8.748;2023-07-29T09:26:34;99563.72;;;22.79;100.00
34925;BME280;21130;51.728;8.748;2023-07-29T09:29:01;99573.97;;;23.54;100.00
34925;BME280;21130;51.728;8.748;2023-07-29T09:31:29;99560.63;;;23.42;100.00
34925;BME280;21130;51.728;8.748;2023-07-29T09:33:57;99567.97;;;23.43;100.00
34925;BME280;21130;51.728;8.748;2023-07-29T09:36:24;99570.78;;;23.56;100.00
34925;BME280;21130;51.728;8.748;2023-07-29T09:38:52;99571.25;;;23.58;100.00
34925;BME280;21130;51.728;8.748;2023-07-29T09:41:23;99574.81;;;23.30;100.00
34925;BME280;21130;51.728;8.748;2023-07-29T09:43:55;99570.78;;;23.43;100.00
34925;BME280;21130;51.728;8.748;2023-07-29T09:46:23;99563.69;;;23.37;100.00
34925;BME280;21130;51.728;8.748;2023-07-29T09:48:52;99566.66;;;23.28;100.00
34925;BME280;21130;51.728;8.748;2023-07-29T09:51:19;99570.22;;;22.80;100.00
34925;BME280;21130;51.728;8.748;2023-07-29T09:53:47;99557.09;;;23.08;100.00
34925;BME280;21130;51.728;8.748;2023-07-29T09:56:14;99568.66;;;23.77;100.00
34925;BME280;21130;51.728;8.748;2023-07-29T09:58:44;99556.16;;;23.54;100.00
34925;BME280;21130;51.728;8.748;2023-07-29T10:01:12;99561.34;;;23.39;100.00
34925;BME280;21130;51.728;8.748;2023-07-29T10:03:38;99568.41;;;23.82;100.00
34925;BME280;21130;51.728;8.748;2023-07-29T10:06:06;99568.72;;;24.46;100.00
34925;BME280;21130;51.728;8.748;2023-07-29T10:08:33;99561.41;;;24.89;100.00
34925;BME280;21130;51.728;8.748;2023-07-29T10:11:01;99561.63;;;25.28;100.00
34925;BME280;21130;51.728;8.748;2023-07-29T10:13:28;99553.84;;;24.65;100.00
34925;BME280;21130;51.728;8.748;2023-07-29T10:15:56;99562.44;;;24.12;100.00
34925;BME280;21130;51.728;8.748;2023-07-29T10:18:24;99567.00;;;23.64;100.00
34925;BME280;21130;51.728;8.748;2023-07-29T10:20:51;99556.97;;;23.29;100.00
34925;BME280;21130;51.728;8.748;2023-07-29T10:23:18;99566.56;;;23.25;100.00
34925;BME280;21130;51.728;8.748;2023-07-29T10:25:49;99561.34;;;23.64;100.00
34925;BME280;21130;51.728;8.748;2023-07-29T10:28:19;99557.94;;;24.51;100.00
34925;BME280;21130;51.728;8.748;2023-07-29T10:30:46;99561.00;;;24.58;100.00
34925;BME280;21130;51.728;8.748;2023-07-29T10:33:15;99566.13;;;24.41;100.00
34925;BME280;21130;51.728;8.748;2023-07-29T10:35:42;99567.41;;;24.43;100.00
34925;BME280;21130;51.728;8.748;2023-07-29T10:38:09;99558.88;;;24.15;100.00
34925;BME280;21130;51.728;8.748;2023-07-29T10:40:46;99560.75;;;24.23;97.78
34925;BME280;21130;51.728;8.748;2023-07-29T10:43:19;99574.22;;;24.54;100.00
34925;BME280;21130;51.728;8.748;2023-07-29T10:45:50;99568.50;;;24.39;98.50
34925;BME280;21130;51.728;8.748;2023-07-29T10:48:42;99566.75;;;24.62;100.00
34925;BME280;21130;51.728;8.748;2023-07-29T10:51:25;99567.63;;;24.94;94.32
34925;BME280;21130;51.728;8.748;2023-07-29T10:53:55;99564.84;;;24.66;87.62
34925;BME280;21130;51.728;8.748;2023-07-29T10:56:27;99565.94;;;23.68;97.05
34925;BME280;21130;51.728;8.748;2023-07-29T10:58:55;99557.91;;;23.83;94.74
34925;BME280;21130;51.728;8.748;2023-07-29T11:01:29;99563.69;;;23.86;97.74
34925;BME280;21130;51.728;8.748;2023-07-29T11:04:24;99557.69;;;23.51;100.00
34925;BME280;21130;51.728;8.748;2023-07-29T11:07:23;99566.41;;;23.70;100.00
34925;BME280;21130;51.728;8.748;2023-07-29T11:09:54;99567.09;;;23.67;100.00
34925;BME280;21130;51.728;8.748;2023-07-29T11:12:49;99557.34;;;23.28;100.00
34925;BME280;21130;51.728;8.748;2023-07-29T11:15:19;99564.28;;;23.06;100.00
34925;BME280;21130;51.728;8.748;2023-07-29T11:17:47;99563.25;;;23.23;100.00
34925;BME280;21130;51.728;8.748;2023-07-29T11:20:16;99561.91;;;23.82;100.00
34925;BME280;21130;51.728;8.748;2023-07-29T11:22:43;99558.75;;;24.52;100.00
34925;BME280;21130;51.728;8.748;2023-07-29T11:25:11;99569.22;;;24.64;87.36
34925;BME280;21130;51.728;8.748;2023-07-29T11:27:39;99573.44;;;24.42;95.16
34925;BME280;21130;51.728;8.748;2023-07-29T11:30:07;99554.84;;;24.56;94.80
34925;BME280;21130;51.728;8.748;2023-07-29T11:32:35;99548.81;;;24.58;95.12
34925;BME280;21130;51.728;8.748;2023-07-29T11:35:18;99550.13;;;24.76;94.90
34925;BME280;21130;51.728;8.748;2023-07-29T11:37:46;99558.06;;;25.31;96.13
34925;BME280;21130;51.728;8.748;2023-07-29T11:40:14;99544.09;;;24.94;87.30
34925;BME280;21130;51.728;8.748;2023-07-29T11:42:41;99554.75;;;25.29;87.07
34925;BME280;21130;51.728;8.748;2023-07-29T11:45:08;99537.06;;;25.51;84.31
34925;BME280;21130;51.728;8.748;2023-07-29T11:47:36;99534.50;;;25.46;91.87
34925;BME280;21130;51.728;8.748;2023-07-29T11:50:04;99537.81;;;25.32;85.13
34925;BME280;21130;51.728;8.748;2023-07-29T11:52:33;99529.63;;;25.47;84.02
34925;BME280;21130;51.728;8.748;2023-07-29T11:55:00;99536.44;;;25.26;82.54
34925;BME280;21130;51.728;8.748;2023-07-29T11:57:28;99531.41;;;25.19;88.26
34925;BME280;21130;51.728;8.748;2023-07-29T11:59:54;99536.81;;;25.76;82.24
34925;BME280;21130;51.728;8.748;2023-07-29T12:02:23;99543.09;;;24.86;85.12
34925;BME280;21130;51.728;8.748;2023-07-29T12:04:50;99543.69;;;25.75;90.35
34925;BME280;21130;51.728;8.748;2023-07-29T12:07:17;99526.03;;;26.40;85.55
34925;BME280;21130;51.728;8.748;2023-07-29T12:09:46;99534.19;;;26.41;77.06
34925;BME280;21130;51.728;8.748;2023-07-29T12:12:14;99535.69;;;26.35;69.93
34925;BME280;21130;51.728;8.748;2023-07-29T12:14:44;99535.16;;;26.29;73.69
34925;BME280;21130;51.728;8.748;2023-07-29T12:17:11;99544.19;;;26.16;77.63
34925;BME280;21130;51.728;8.748;2023-07-29T12:19:38;99547.34;;;25.91;72.59
34925;BME280;21130;51.728;8.748;2023-07-29T12:22:06;99550.69;;;25.46;79.94
34925;BME280;21130;51.728;8.748;2023-07-29T12:24:35;99539.25;;;25.10;89.22
34925;BME280;21130;51.728;8.748;2023-07-29T12:27:05;99546.41;;;24.88;90.96
34925;BME280;21130;51.728;8.748;2023-07-29T12:29:31;99546.69;;;24.27;94.51
34925;BME280;21130;51.728;8.748;2023-07-29T12:31:59;99538.72;;;24.04;99.98
34925;BME280;21130;51.728;8.748;2023-07-29T12:34:26;99541.47;;;24.01;100.00
34925;BME280;21130;51.728;8.748;2023-07-29T12:36:54;99533.06;;;24.04;100.00
34925;BME280;21130;51.728;8.748;2023-07-29T12:39:23;99536.97;;;24.00;100.00
34925;BME280;21130;51.728;8.748;2023-07-29T12:41:51;99538.88;;;23.96;100.00
34925;BME280;21130;51.728;8.748;2023-07-29T12:44:19;99536.41;;;23.69;100.00
34925;BME280;21130;51.728;8.748;2023-07-29T12:46:46;99534.44;;;23.58;100.00
34925;BME280;21130;51.728;8.748;2023-07-29T12:49:12;99534.94;;;23.47;100.00
34925;BME280;21130;51.728;8.748;2023-07-29T12:51:39;99535.19;;;23.30;100.00
34925;BME280;21130;51.728;8.748;2023-07-29T12:54:05;99525.47;;;23.06;100.00